Time;durP1;ratioP1;P1;durP2;ratioP2;P2;SDS_P1;SDS_P2;PMS_P1;PMS_P2;Temp;Humidity;BMP_temperature;BMP_pressure;BME280_temperature;BME280_humidity;BME280_pressure;Samples;Min_cycle;Max_cycle;Signal;HPM_P1;HPM_P2
2023/03/18 00:00:20;;;;;;;10.32;8.32;;;11.50;99.90;;;;;;5115623;28;20040;-64
2023/03/18 00:02:48;;;;;;;15.15;8.60;;;11.50;99.90;;;;;;5115303;28;20544;-64
2023/03/18 00:05:16;;;;;;;17.48;9.45;;;11.50;99.90;;;;;;5114374;28;20504;-63
2023/03/18 00:07:44;;;;;;;13.90;8.60;;;11.50;99.90;;;;;;5115951;28;20044;-63
2023/03/18 00:10:11;;;;;;;14.57;8.65;;;11.50;99.90;;;;;;5114850;28;20399;-63
2023/03/18 00:12:40;;;;;;;16.88;9.30;;;11.50;99.90;;;;;;5116049;28;20453;-64
2023/03/18 00:15:09;;;;;;;12.43;9.27;;;11.50;99.90;;;;;;5114494;28;20517;-64
2023/03/18 00:17:36;;;;;;;14.27;9.38;;;11.40;99.90;;;;;;5114146;28;20483;-63
2023/03/18 00:20:05;;;;;;;12.38;8.02;;;11.40;99.90;;;;;;5113417;28;20046;-63
2023/03/18 00:22:33;;;;;;;14.93;9.45;;;11.40;99.90;;;;;;5114565;28;20055;-64
2023/03/18 00:25:02;;;;;;;12.30;8.73;;;11.40;99.90;;;;;;5113548;28;20292;-63
2023/03/18 00:27:29;;;;;;;14.60;9.40;;;11.30;99.90;;;;;;5115298;28;20044;-63
2023/03/18 00:29:56;;;;;;;16.23;8.15;;;11.30;99.90;;;;;;5115015;28;20043;-63
2023/03/18 00:32:25;;;;;;;12.07;8.07;;;11.30;99.90;;;;;;5114710;28;20051;-64
2023/03/18 00:34:52;;;;;;;15.65;8.80;;;11.30;99.90;;;;;;5113894;28;20052;-64
2023/03/18 00:37:29;;;;;;;16.35;8.85;;;11.20;99.90;;;;;;5114517;28;20039;-63
2023/03/18 00:39:56;;;;;;;12.73;8.55;;;11.20;99.90;;;;;;5113302;28;20058;-64
2023/03/18 00:42:25;;;;;;;12.38;8.45;;;11.20;99.90;;;;;;5115373;28;20047;-63
2023/03/18 00:44:52;;;;;;;14.57;9.15;;;11.10;99.90;;;;;;5112214;28;20047;-64
2023/03/18 00:47:20;;;;;;;13.60;8.80;;;11.10;99.90;;;;;;5114031;28;20126;-64
2023/03/18 00:49:47;;;;;;;12.43;9.20;;;11.10;99.90;;;;;;5112571;28;20069;-63
2023/03/18 00:52:14;;;;;;;12.13;8.80;;;11.00;99.90;;;;;;5114518;28;20051;-63
2023/03/18 00:54:40;;;;;;;12.55;8.77;;;11.00;99.90;;;;;;5111417;28;20063;-63
2023/03/18 00:57:09;;;;;;;16.15;9.25;;;11.00;99.90;;;;;;5113854;28;20074;-64
2023/03/18 00:59:37;;;;;;;15.10;9.75;;;10.90;99.90;;;;;;5111269;28;20065;-63
2023/03/18 01:02:04;;;;;;;14.63;9.18;;;10.90;99.90;;;;;;5114778;28;20051;-63
2023/03/18 01:04:31;;;;;;;15.02;10.13;;;10.90;99.90;;;;;;5113732;28;20059;-63
2023/03/18 01:06:58;;;;;;;14.73;9.98;;;10.90;99.90;;;;;;5113868;28;20051;-63
2023/03/18 01:09:25;;;;;;;13.75;9.60;;;10.80;99.90;;;;;;5114489;28;20047;-63
2023/03/18 01:11:52;;;;;;;16.00;10.32;;;10.80;99.90;;;;;;5114402;28;20564;-63
2023/03/18 01:14:20;;;;;;;14.25;9.65;;;10.70;99.90;;;;;;5113996;28;20071;-63
2023/03/18 01:16:48;;;;;;;17.73;11.40;;;10.70;99.90;;;;;;5114434;28;20050;-63
2023/03/18 01:19:15;;;;;;;18.15;11.00;;;10.70;99.90;;;;;;5114203;28;20047;-63
2023/03/18 01:21:42;;;;;;;19.60;10.48;;;10.60;99.90;;;;;;5113722;28;20507;-63
2023/03/18 01:24:09;;;;;;;17.45;11.10;;;10.50;99.90;;;;;;5113252;28;20060;-63
2023/03/18 01:26:36;;;;;;;15.30;11.20;;;10.50;99.90;;;;;;5113671;28;20056;-63
2023/03/18 01:29:03;;;;;;;15.93;11.35;;;10.40;99.90;;;;;;5113982;28;20122;-63
2023/03/18 01:31:30;;;;;;;15.70;11.65;;;10.40;99.90;;;;;;5112927;28;20051;-63
2023/03/18 01:33:58;;;;;;;18.67;12.57;;;10.30;99.90;;;;;;5112503;28;20380;-63
2023/03/18 01:36:27;;;;;;;18.90;11.48;;;10.30;99.90;;;;;;5113940;28;20092;-63
2023/03/18 01:38:55;;;;;;;17.90;12.88;;;10.20;99.90;;;;;;5112811;28;20052;-63
2023/03/18 01:41:22;;;;;;;23.27;14.10;;;10.20;99.90;;;;;;5113451;28;20490;-63
2023/03/18 01:43:49;;;;;;;19.25;13.68;;;10.10;99.90;;;;;;5113975;28;20043;-63
2023/03/18 01:46:35;;;;;;;21.92;15.00;;;10.10;99.90;;;;;;5113888;28;20044;-63
2023/03/18 01:49:09;;;;;;;20.10;13.90;;;10.10;99.90;;;;;;5112256;28;20399;-63
2023/03/18 01:51:38;;;;;;;20.77;15.25;;;10.00;99.90;;;;;;5112973;28;20039;-63
2023/03/18 01:54:07;;;;;;;23.48;15.98;;;10.00;99.90;;;;;;5113710;28;20492;-63
2023/03/18 01:56:37;;;;;;;23.95;15.95;;;10.00;99.90;;;;;;5111637;28;20043;-63
2023/03/18 01:59:06;;;;;;;21.73;15.23;;;10.00;99.90;;;;;;5113509;28;20082;-63
2023/03/18 02:01:38;;;;;;;20.80;16.02;;;9.90;99.90;;;;;;5113732;28;20035;-64
2023/03/18 02:04:09;;;;;;;24.83;16.83;;;9.90;99.90;;;;;;5113674;28;20405;-62
2023/03/18 02:06:37;;;;;;;25.55;16.95;;;10.00;99.90;;;;;;5113210;28;20513;-63
2023/03/18 02:09:04;;;;;;;26.08;17.52;;;9.90;99.90;;;;;;5112952;28;20035;-63
2023/03/18 02:11:35;;;;;;;25.88;17.92;;;9.90;99.90;;;;;;5111987;28;20051;-63
2023/03/18 02:14:04;;;;;;;23.60;18.25;;;9.90;99.90;;;;;;5110862;28;20491;-63
2023/03/18 02:16:37;;;;;;;26.98;18.00;;;9.90;99.90;;;;;;5111550;28;20048;-63
2023/03/18 02:19:14;;;;;;;25.13;18.13;;;9.90;99.90;;;;;;5112954;28;20051;-62
2023/03/18 02:21:47;;;;;;;24.10;18.58;;;9.90;99.90;;;;;;5113587;28;20133;-64
2023/03/18 02:24:24;;;;;;;26.42;19.95;;;9.90;99.90;;;;;;5112566;28;20047;-63
2023/03/18 02:26:59;;;;;;;26.73;19.15;;;9.90;99.90;;;;;;5113147;28;20126;-63
2023/03/18 02:29:29;;;;;;;23.05;19.20;;;9.80;99.90;;;;;;5112947;28;20048;-63
2023/03/18 02:31:58;;;;;;;27.65;20.33;;;9.80;99.90;;;;;;5111004;28;20512;-63
2023/03/18 02:34:25;;;;;;;29.48;20.38;;;9.80;99.90;;;;;;5111647;28;20050;-64
2023/03/18 02:36:52;;;;;;;30.85;21.30;;;9.70;99.90;;;;;;5111115;28;20047;-63
2023/03/18 02:39:21;;;;;;;26.25;20.40;;;9.70;99.90;;;;;;5112923;28;20411;-63
2023/03/18 02:41:49;;;;;;;31.73;22.67;;;9.70;99.90;;;;;;5110632;28;20066;-63
2023/03/18 02:44:17;;;;;;;28.30;21.08;;;9.70;99.90;;;;;;5112155;28;20043;-63
2023/03/18 02:46:54;;;;;;;30.23;22.00;;;9.60;99.90;;;;;;5112777;28;20126;-63
2023/03/18 02:49:23;;;;;;;27.48;20.90;;;9.60;99.90;;;;;;5112453;28;20047;-63
2023/03/18 02:51:51;;;;;;;30.33;21.95;;;9.60;99.90;;;;;;5110736;28;20139;-63
2023/03/18 02:54:20;;;;;;;30.30;21.73;;;9.50;99.90;;;;;;5112596;28;20553;-64
2023/03/18 02:56:47;;;;;;;31.58;23.02;;;9.50;99.90;;;;;;5112775;28;20074;-63
2023/03/18 02:59:15;;;;;;;33.63;23.55;;;9.50;99.90;;;;;;5110596;28;20096;-63
2023/03/18 03:01:43;;;;;;;34.10;23.90;;;9.40;99.90;;;;;;5112383;28;20120;-63
2023/03/18 03:04:12;;;;;;;33.78;23.13;;;9.40;99.90;;;;;;5111531;28;20051;-63
2023/03/18 03:06:41;;;;;;;33.47;24.23;;;9.30;99.90;;;;;;5110435;28;20504;-62
2023/03/18 03:09:10;;;;;;;31.35;24.90;;;9.30;99.90;;;;;;5112343;28;20094;-64
2023/03/18 03:11:37;;;;;;;36.85;24.67;;;9.20;99.90;;;;;;5111323;28;20050;-62
2023/03/18 03:14:05;;;;;;;34.85;25.88;;;9.20;99.90;;;;;;5110936;28;20047;-63
2023/03/18 03:16:32;;;;;;;34.63;25.20;;;9.10;99.90;;;;;;5112208;28;20047;-63
2023/03/18 03:18:59;;;;;;;36.17;24.52;;;9.10;99.90;;;;;;5110973;28;20100;-64
2023/03/18 03:21:28;;;;;;;36.95;26.10;;;9.10;99.90;;;;;;5112383;28;20055;-63
2023/03/18 03:23:55;;;;;;;35.08;25.85;;;9.00;99.90;;;;;;5111155;28;20082;-64
2023/03/18 03:26:22;;;;;;;36.50;25.40;;;9.10;99.90;;;;;;5111481;28;20047;-63
2023/03/18 03:28:49;;;;;;;38.13;26.08;;;9.10;99.90;;;;;;5110910;28;20044;-63
2023/03/18 03:31:16;;;;;;;35.10;26.40;;;9.00;99.90;;;;;;5112224;28;20048;-64
2023/03/18 03:33:44;;;;;;;39.38;25.42;;;9.00;99.90;;;;;;5110703;28;20470;-63
2023/03/18 03:36:13;;;;;;;38.85;26.38;;;9.00;99.90;;;;;;5111091;28;20055;-63
2023/03/18 03:38:42;;;;;;;40.33;28.58;;;9.00;99.90;;;;;;5110723;28;20058;-63
2023/03/18 03:41:10;;;;;;;37.65;25.70;;;9.00;99.90;;;;;;5109713;28;20044;-64
2023/03/18 03:43:37;;;;;;;33.50;25.45;;;9.00;99.90;;;;;;5112041;28;20083;-63
2023/03/18 03:46:05;;;;;;;36.88;26.55;;;9.00;99.90;;;;;;5112371;28;20043;-64
2023/03/18 03:48:32;;;;;;;32.90;25.92;;;9.00;99.90;;;;;;5111470;28;20051;-64
2023/03/18 03:50:59;;;;;;;38.10;26.00;;;9.00;99.90;;;;;;5112101;28;20043;-63
2023/03/18 03:53:27;;;;;;;40.97;26.23;;;9.00;99.90;;;;;;5111805;28;20480;-64
2023/03/18 03:55:55;;;;;;;38.47;25.55;;;8.90;99.90;;;;;;5111438;28;20050;-65
2023/03/18 03:58:22;;;;;;;39.70;25.15;;;9.00;99.90;;;;;;5110116;28;20125;-63
2023/03/18 04:00:49;;;;;;;35.92;25.55;;;9.00;99.90;;;;;;5111864;28;20047;-64
2023/03/18 04:03:17;;;;;;;39.58;26.52;;;8.90;99.90;;;;;;5111434;28;20044;-63
2023/03/18 04:05:44;;;;;;;38.35;24.63;;;8.90;99.90;;;;;;5111710;28;20063;-63
2023/03/18 04:08:11;;;;;;;36.28;25.25;;;8.90;99.90;;;;;;5111749;28;20043;-63
2023/03/18 04:10:38;;;;;;;33.67;24.63;;;8.90;99.90;;;;;;5110453;28;20056;-64
2023/03/18 04:13:07;;;;;;;38.55;26.45;;;8.90;99.90;;;;;;5110550;28;20040;-64
2023/03/18 04:15:34;;;;;;;39.85;25.92;;;8.80;99.90;;;;;;5112951;28;20396;-64
2023/03/18 04:18:05;;;;;;;37.05;25.08;;;8.80;99.90;;;;;;5114385;28;20057;-64
2023/03/18 04:20:34;;;;;;;38.13;26.65;;;8.90;99.90;;;;;;5115310;28;20050;-64
2023/03/18 04:23:01;;;;;;;37.08;27.17;;;8.90;99.90;;;;;;5112636;28;20127;-63
2023/03/18 04:25:29;;;;;;;40.05;25.63;;;8.80;99.90;;;;;;5114290;28;20087;-63
2023/03/18 04:27:56;;;;;;;40.08;26.00;;;8.80;99.90;;;;;;5111907;28;20052;-63
2023/03/18 04:30:25;;;;;;;42.58;26.50;;;8.80;99.90;;;;;;5113496;28;20441;-63
2023/03/18 04:32:53;;;;;;;36.85;25.58;;;8.80;99.90;;;;;;5115152;28;20122;-63
2023/03/18 04:35:22;;;;;;;37.25;25.55;;;8.80;99.90;;;;;;5113793;28;20079;-64
2023/03/18 04:37:49;;;;;;;36.70;25.40;;;8.80;99.90;;;;;;5114702;28;20039;-63
2023/03/18 04:40:16;;;;;;;36.08;24.80;;;8.80;99.90;;;;;;5113853;28;20058;-63
2023/03/18 04:42:44;;;;;;;35.95;23.73;;;8.80;99.90;;;;;;5114926;28;20535;-63
2023/03/18 04:45:11;;;;;;;39.03;24.42;;;8.80;99.90;;;;;;5111066;28;20047;-63
2023/03/18 04:47:40;;;;;;;36.75;23.75;;;8.70;99.90;;;;;;5114919;28;20641;-62
2023/03/18 04:50:11;;;;;;;36.47;24.20;;;8.80;99.90;;;;;;5114627;28;20047;-63
2023/03/18 04:52:38;;;;;;;38.20;23.20;;;8.80;99.90;;;;;;5114353;28;20039;-63
2023/03/18 04:55:08;;;;;;;31.73;23.27;;;8.70;99.90;;;;;;5113537;28;20054;-63
2023/03/18 04:57:36;;;;;;;32.38;23.63;;;8.80;99.90;;;;;;5112299;28;20043;-62
2023/03/18 05:00:05;;;;;;;31.20;22.90;;;8.70;99.90;;;;;;5114497;28;20060;-63
2023/03/18 05:02:32;;;;;;;32.50;23.13;;;8.70;99.90;;;;;;5113579;28;20100;-64
2023/03/18 05:05:01;;;;;;;33.88;22.13;;;8.70;99.90;;;;;;5114204;28;20051;-63
2023/03/18 05:07:29;;;;;;;34.30;22.27;;;8.70;99.90;;;;;;5114676;28;20094;-63
2023/03/18 05:09:56;;;;;;;31.55;23.50;;;8.70;99.90;;;;;;5114722;28;20044;-63
2023/03/18 05:12:24;;;;;;;33.70;22.33;;;8.70;99.90;;;;;;5112399;28;20055;-63
2023/03/18 05:14:51;;;;;;;34.10;22.20;;;8.70;99.90;;;;;;5114424;28;20073;-65
2023/03/18 05:17:19;;;;;;;35.50;22.60;;;8.70;99.90;;;;;;5113337;28;20465;-65
2023/03/18 05:19:48;;;;;;;32.58;22.10;;;8.70;99.90;;;;;;5112623;28;20056;-65
2023/03/18 05:22:18;;;;;;;34.08;24.02;;;8.70;99.90;;;;;;5112994;28;20035;-65
2023/03/18 05:24:47;;;;;;;31.88;22.27;;;8.80;99.90;;;;;;5114042;28;21256;-63
2023/03/18 05:27:15;;;;;;;33.20;23.00;;;8.80;99.90;;;;;;5113622;28;20125;-63
2023/03/18 05:29:42;;;;;;;30.90;22.08;;;8.80;99.90;;;;;;5113685;28;20040;-63
2023/03/18 05:32:11;;;;;;;34.13;22.00;;;8.90;99.90;;;;;;5112884;28;20048;-63
2023/03/18 05:34:39;;;;;;;32.08;22.48;;;8.90;99.90;;;;;;5113328;28;20043;-63
2023/03/18 05:37:08;;;;;;;34.58;22.50;;;8.90;99.90;;;;;;5114079;28;20417;-63
2023/03/18 05:39:37;;;;;;;36.85;22.75;;;8.90;99.90;;;;;;5113708;28;20441;-64
2023/03/18 05:42:05;;;;;;;35.50;22.70;;;8.90;99.90;;;;;;5112202;28;20052;-63
2023/03/18 05:44:32;;;;;;;39.53;22.55;;;9.00;99.90;;;;;;5114028;28;20118;-64
2023/03/18 05:47:00;;;;;;;37.88;21.95;;;9.00;99.90;;;;;;5113152;28;20043;-63
2023/03/18 05:49:27;;;;;;;34.17;22.83;;;9.00;99.90;;;;;;5113549;28;20088;-65
2023/03/18 05:51:54;;;;;;;33.13;22.63;;;9.00;99.90;;;;;;5112537;28;20047;-62
2023/03/18 05:54:22;;;;;;;36.38;23.25;;;9.10;99.90;;;;;;5111561;28;20054;-62
2023/03/18 05:56:51;;;;;;;34.88;23.52;;;9.00;99.90;;;;;;5113363;28;20074;-63
2023/03/18 05:59:18;;;;;;;36.88;22.75;;;9.10;99.90;;;;;;5113108;28;20470;-64
2023/03/18 06:01:45;;;;;;;35.22;23.00;;;9.10;99.90;;;;;;5111617;28;20044;-62
2023/03/18 06:04:12;;;;;;;39.03;23.42;;;9.20;99.90;;;;;;5112132;28;20428;-64
2023/03/18 06:06:39;;;;;;;42.45;23.85;;;9.20;99.90;;;;;;5113280;28;20044;-64
2023/03/18 06:09:07;;;;;;;39.22;23.25;;;9.20;99.90;;;;;;5112354;28;20094;-63
2023/03/18 06:11:34;;;;;;;41.50;24.50;;;9.10;99.90;;;;;;5113460;28;20051;-63
2023/03/18 06:14:03;;;;;;;37.63;22.90;;;9.10;99.90;;;;;;5111876;28;20071;-63
2023/03/18 06:16:30;;;;;;;40.03;23.85;;;9.20;99.90;;;;;;5112662;28;20063;-64
2023/03/18 06:18:57;;;;;;;39.67;24.17;;;9.20;99.90;;;;;;5111880;28;20051;-64
2023/03/18 06:21:25;;;;;;;41.15;25.23;;;9.20;99.90;;;;;;5112027;28;20086;-63
2023/03/18 06:23:52;;;;;;;41.67;25.33;;;9.20;99.90;;;;;;5112338;28;20405;-63
2023/03/18 06:26:19;;;;;;;44.42;24.90;;;9.20;99.90;;;;;;5113208;28;20051;-63
2023/03/18 06:28:47;;;;;;;39.58;23.85;;;9.20;99.90;;;;;;5103358;28;20040;-63
2023/03/18 06:31:15;;;;;;;38.53;24.55;;;9.30;99.90;;;;;;5107471;28;20059;-63
2023/03/18 06:33:45;;;;;;;43.35;23.40;;;9.40;99.90;;;;;;5106613;28;20044;-63
2023/03/18 06:36:12;;;;;;;39.80;24.45;;;9.50;99.90;;;;;;5108776;28;20123;-64
2023/03/18 06:38:39;;;;;;;40.00;24.40;;;9.50;99.90;;;;;;5110947;28;20063;-64
2023/03/18 06:41:06;;;;;;;41.60;23.83;;;9.50;99.90;;;;;;5108793;28;20055;-64
2023/03/18 06:43:32;;;;;;;40.53;24.33;;;9.50;99.90;;;;;;5111472;28;20056;-64
2023/03/18 06:45:59;;;;;;;41.25;25.25;;;9.50;99.90;;;;;;5110378;28;20062;-63
2023/03/18 06:48:28;;;;;;;44.05;25.60;;;9.50;99.90;;;;;;5111968;28;20046;-62
2023/03/18 06:50:55;;;;;;;39.83;24.20;;;9.60;99.90;;;;;;5108488;28;20051;-64
2023/03/18 06:53:22;;;;;;;36.10;23.42;;;9.60;99.90;;;;;;5109612;28;20487;-64
2023/03/18 06:55:49;;;;;;;38.55;24.42;;;9.70;99.90;;;;;;5109908;28;20051;-63
2023/03/18 06:58:17;;;;;;;42.30;25.02;;;9.70;99.90;;;;;;5110222;28;20063;-63
2023/03/18 07:00:46;;;;;;;41.00;24.73;;;9.80;99.90;;;;;;5109198;28;20064;-62
2023/03/18 07:03:14;;;;;;;38.45;24.40;;;9.90;99.90;;;;;;5110071;28;20082;-63
2023/03/18 07:05:42;;;;;;;39.65;23.95;;;10.00;99.90;;;;;;5105788;28;20056;-64
2023/03/18 07:08:10;;;;;;;35.45;23.42;;;10.10;99.90;;;;;;5110497;28;20403;-64
2023/03/18 07:10:37;;;;;;;35.53;22.50;;;10.20;99.90;;;;;;5109949;28;20058;-63
2023/03/18 07:13:04;;;;;;;33.13;22.50;;;10.50;99.90;;;;;;5107821;28;20052;-63
2023/03/18 07:15:32;;;;;;;34.88;21.15;;;10.90;99.90;;;;;;5110214;28;20108;-62
2023/03/18 07:18:01;;;;;;;28.65;20.52;;;11.60;99.90;;;;;;5108576;28;20046;-63
2023/03/18 07:20:28;;;;;;;31.98;21.10;;;12.00;99.90;;;;;;5109554;28;20461;-63
2023/03/18 07:22:58;;;;;;;28.23;20.00;;;12.00;99.90;;;;;;5109247;28;20051;-63
2023/03/18 07:25:25;;;;;;;28.38;20.13;;;11.90;99.90;;;;;;5108729;28;20048;-63
2023/03/18 07:27:53;;;;;;;31.95;20.60;;;11.80;99.90;;;;;;5110235;28;20044;-63
2023/03/18 07:30:20;;;;;;;33.92;20.77;;;11.70;99.90;;;;;;5110118;28;20059;-64
2023/03/18 07:32:48;;;;;;;26.88;20.00;;;11.60;99.90;;;;;;5107750;28;20047;-63
2023/03/18 07:35:15;;;;;;;29.35;19.90;;;11.80;99.90;;;;;;5111840;28;20043;-63
2023/03/18 07:37:42;;;;;;;31.35;19.83;;;12.00;99.90;;;;;;5109894;28;20047;-63
2023/03/18 07:40:12;;;;;;;25.48;19.00;;;12.00;99.90;;;;;;5109409;28;20425;-62
2023/03/18 07:42:39;;;;;;;27.90;20.02;;;12.00;99.90;;;;;;5108824;28;20043;-63
2023/03/18 07:45:08;;;;;;;26.50;19.23;;;11.90;99.90;;;;;;5111502;28;20552;-64
2023/03/18 07:47:35;;;;;;;25.60;19.92;;;11.80;99.90;;;;;;5107302;28;20124;-64
2023/03/18 07:50:03;;;;;;;32.22;20.65;;;11.80;99.90;;;;;;5112833;28;20054;-64
2023/03/18 07:52:30;;;;;;;31.15;20.80;;;11.80;99.90;;;;;;5113961;28;20100;-63
2023/03/18 07:54:57;;;;;;;29.13;20.30;;;11.80;99.90;;;;;;5113511;28;20039;-64
2023/03/18 07:57:25;;;;;;;29.38;20.45;;;11.90;99.90;;;;;;5112255;28;20285;-64
2023/03/18 07:59:52;;;;;;;30.05;20.95;;;11.90;99.90;;;;;;5113254;28;20060;-64
2023/03/18 08:02:20;;;;;;;30.42;20.75;;;11.90;99.90;;;;;;5111859;28;20511;-63
2023/03/18 08:04:47;;;;;;;29.30;20.73;;;11.80;99.90;;;;;;5114261;28;20040;-63
2023/03/18 08:07:14;;;;;;;27.85;19.65;;;11.80;99.90;;;;;;5114240;28;20048;-63
2023/03/18 08:09:41;;;;;;;30.35;20.60;;;11.90;99.90;;;;;;5112434;28;20040;-64
2023/03/18 08:12:09;;;;;;;32.42;20.10;;;11.90;99.90;;;;;;5113215;28;20411;-64
2023/03/18 08:14:38;;;;;;;33.13;21.55;;;11.90;99.90;;;;;;5106384;28;20053;-63
2023/03/18 08:17:07;;;;;;;30.85;19.63;;;11.90;99.90;;;;;;5114516;28;20051;-62
2023/03/18 08:19:34;;;;;;;31.27;21.10;;;11.90;99.90;;;;;;5112391;28;20097;-64
2023/03/18 08:22:02;;;;;;;26.42;20.15;;;12.00;99.90;;;;;;5112161;28;20104;-63
2023/03/18 08:24:29;;;;;;;24.63;18.75;;;12.00;99.90;;;;;;5112664;28;20043;-62
2023/03/18 08:26:56;;;;;;;27.33;19.10;;;12.00;99.90;;;;;;5114148;28;20043;-64
2023/03/18 08:29:23;;;;;;;30.77;21.00;;;12.00;99.90;;;;;;5111859;28;20089;-63
2023/03/18 08:31:51;;;;;;;28.48;18.40;;;12.00;99.90;;;;;;5108990;28;20051;-63
2023/03/18 08:34:18;;;;;;;31.02;20.75;;;12.00;99.90;;;;;;5111853;28;20465;-63
2023/03/18 08:36:45;;;;;;;25.42;18.90;;;12.00;99.90;;;;;;5112426;28;20059;-64
2023/03/18 08:39:12;;;;;;;26.50;19.65;;;11.90;99.90;;;;;;5111948;28;20043;-62
2023/03/18 08:41:39;;;;;;;30.95;19.88;;;11.90;99.90;;;;;;5114176;28;20077;-64
2023/03/18 08:44:07;;;;;;;29.15;19.77;;;11.90;99.90;;;;;;5107968;28;20050;-64
2023/03/18 08:46:34;;;;;;;29.58;19.52;;;11.90;99.90;;;;;;5114713;28;20051;-63
2023/03/18 08:49:02;;;;;;;28.75;20.45;;;11.90;99.90;;;;;;5111098;28;20043;-63
2023/03/18 08:51:29;;;;;;;29.15;19.77;;;11.90;99.90;;;;;;5113144;28;20055;-63
2023/03/18 08:53:56;;;;;;;28.80;20.42;;;11.90;99.90;;;;;;5114681;28;20856;-63
2023/03/18 08:56:23;;;;;;;28.20;20.45;;;11.90;99.90;;;;;;5113291;28;20051;-64
2023/03/18 08:58:50;;;;;;;27.85;20.77;;;11.80;99.90;;;;;;5114441;28;20051;-64
2023/03/18 09:01:18;;;;;;;30.50;20.52;;;11.90;99.90;;;;;;5113127;28;20059;-64
2023/03/18 09:03:45;;;;;;;26.88;20.98;;;11.80;99.90;;;;;;5113147;28;20047;-64
2023/03/18 09:06:14;;;;;;;28.50;20.73;;;11.80;99.90;;;;;;5114228;28;20051;-63
2023/03/18 09:08:41;;;;;;;30.52;20.25;;;11.90;99.90;;;;;;5114894;28;20050;-64
2023/03/18 09:11:08;;;;;;;31.63;20.83;;;11.80;99.90;;;;;;5112764;28;20082;-63
2023/03/18 09:13:37;;;;;;;26.50;20.70;;;11.80;99.90;;;;;;5114310;28;20066;-63
2023/03/18 09:16:04;;;;;;;29.17;19.98;;;11.90;99.90;;;;;;5114467;28;20039;-63
2023/03/18 09:18:34;;;;;;;29.60;21.58;;;11.90;99.90;;;;;;5112747;28;20093;-64
2023/03/18 09:21:02;;;;;;;30.08;21.25;;;12.00;99.90;;;;;;5114531;28;20043;-63
2023/03/18 09:23:30;;;;;;;26.83;20.02;;;12.20;99.90;;;;;;5114413;27;20039;-63
2023/03/18 09:25:58;;;;;;;30.17;20.08;;;12.40;99.90;;;;;;5113691;28;20083;-64
2023/03/18 09:28:25;;;;;;;26.38;20.17;;;12.50;99.90;;;;;;5113145;28;20490;-64
2023/03/18 09:30:54;;;;;;;24.17;19.42;;;12.70;99.90;;;;;;5114062;28;20047;-63
2023/03/18 09:33:21;;;;;;;25.15;19.73;;;12.80;99.90;;;;;;5113242;28;20046;-63
2023/03/18 09:35:49;;;;;;;26.40;20.13;;;13.00;99.90;;;;;;5112829;28;20096;-63
2023/03/18 09:38:19;;;;;;;26.48;20.10;;;13.00;99.90;;;;;;5112962;28;20071;-63
2023/03/18 09:40:55;;;;;;;25.25;19.88;;;13.10;99.90;;;;;;5113343;28;20097;-64
2023/03/18 09:43:43;;;;;;;27.63;20.45;;;13.40;99.90;;;;;;5112909;28;20035;-64
2023/03/18 09:46:17;;;;;;;23.05;18.88;;;13.60;99.90;;;;;;5111482;28;20050;-64
2023/03/18 09:49:04;;;;;;;27.92;19.33;;;13.90;99.90;;;;;;5112632;28;20047;-64
2023/03/18 09:51:41;;;;;;;26.38;18.83;;;14.20;99.90;;;;;;5112504;28;20052;-64
2023/03/18 09:54:14;;;;;;;25.33;18.92;;;14.60;99.90;;;;;;5111249;28;20126;-63
2023/03/18 09:56:45;;;;;;;25.55;19.42;;;14.90;99.90;;;;;;5113673;28;20105;-64
2023/03/18 09:59:19;;;;;;;24.42;18.92;;;15.30;99.90;;;;;;5101799;28;20141;-65
2023/03/18 10:01:50;;;;;;;23.48;16.33;;;16.10;99.90;;;;;;5106854;28;20054;-64
2023/03/18 10:04:21;;;;;;;27.65;18.05;;;16.70;99.90;;;;;;5109506;28;20056;-64
2023/03/18 10:06:51;;;;;;;21.48;17.77;;;17.00;99.90;;;;;;5109068;28;20047;-64
2023/03/18 10:09:24;;;;;;;23.70;16.67;;;18.00;99.90;;;;;;5111950;28;20043;-64
2023/03/18 10:11:58;;;;;;;23.90;17.30;;;19.70;99.90;;;;;;5109329;28;20476;-65
2023/03/18 10:14:36;;;;;;;19.20;16.42;;;20.40;99.90;;;;;;5102206;28;20150;-64
2023/03/18 10:17:13;;;;;;;18.90;16.02;;;21.20;99.90;;;;;;5109171;28;20461;-64
2023/03/18 10:19:44;;;;;;;20.40;16.45;;;22.30;99.90;;;;;;5112401;28;20040;-64
2023/03/18 10:22:27;;;;;;;24.77;16.80;;;21.90;99.90;;;;;;5110585;28;20046;-65
2023/03/18 10:25:06;;;;;;;20.45;16.60;;;21.30;99.90;;;;;;5110278;28;20054;-64
2023/03/18 10:27:48;;;;;;;22.88;16.17;;;21.80;99.90;;;;;;5110325;28;20492;-65
2023/03/18 10:30:31;;;;;;;20.58;16.50;;;22.50;99.90;;;;;;5106817;28;20488;-64
2023/03/18 10:33:06;;;;;;;20.05;16.15;;;23.30;99.50;;;;;;5109871;28;20040;-64
2023/03/18 10:35:40;;;;;;;25.00;16.48;;;24.30;98.20;;;;;;5109748;28;20063;-65
2023/03/18 10:38:17;;;;;;;17.40;13.63;;;24.70;97.30;;;;;;5109060;28;20578;-64
2023/03/18 10:40:46;;;;;;;16.85;13.82;;;24.80;95.90;;;;;;5109922;28;20402;-65
2023/03/18 10:43:18;;;;;;;19.20;14.55;;;25.10;94.90;;;;;;5110040;28;20039;-64
2023/03/18 10:45:46;;;;;;;14.88;12.65;;;24.70;93.00;;;;;;5108890;28;20060;-65
2023/03/18 10:48:21;;;;;;;14.85;13.25;;;24.60;93.10;;;;;;5110088;28;20062;-63
2023/03/18 10:50:55;;;;;;;19.42;13.60;;;25.00;94.50;;;;;;5108878;28;20048;-64
2023/03/18 10:53:27;;;;;;;14.60;12.68;;;24.40;94.40;;;;;;5108651;28;20040;-64
2023/03/18 10:55:59;;;;;;;14.07;12.48;;;24.30;94.10;;;;;;5105742;28;20544;-65
2023/03/18 10:58:29;;;;;;;14.50;12.77;;;24.10;94.70;;;;;;5106719;28;20143;-64
2023/03/18 11:00:56;;;;;;;;;;;23.70;94.90;;;;;;5107700;28;20051;-64
2023/03/18 11:03:27;;;;;;;13.88;11.02;;;23.60;94.50;;;;;;5109440;28;19970;-63
2023/03/18 11:05:56;;;;;;;15.32;11.68;;;24.00;95.10;;;;;;5110797;28;20071;-65
2023/03/18 11:08:35;;;;;;;16.15;11.88;;;24.30;94.00;;;;;;5107469;28;20039;-64
2023/03/18 11:11:17;;;;;;;14.53;12.10;;;25.10;94.00;;;;;;5111383;28;20043;-65
2023/03/18 11:13:51;;;;;;;13.45;11.27;;;24.80;93.90;;;;;;5111276;28;20055;-65
2023/03/18 11:16:29;;;;;;;13.88;11.48;;;25.90;92.90;;;;;;5112519;28;20082;-65
2023/03/18 11:18:57;;;;;;;11.85;10.25;;;26.20;91.70;;;;;;5111867;28;20093;-65
2023/03/18 11:21:25;;;;;;;13.57;10.95;;;25.10;91.10;;;;;;5111361;28;20055;-65
2023/03/18 11:24:09;;;;;;;11.60;9.48;;;23.50;93.00;;;;;;5146224;27;20437;-65
2023/03/18 11:26:48;;;;;;;12.88;10.20;;;23.40;94.40;;;;;;5116110;28;20051;-64
2023/03/18 11:29:23;;;;;;;10.00;8.23;;;23.10;94.00;;;;;;5115350;28;20502;-65
2023/03/18 11:31:56;;;;;;;10.90;8.07;;;22.90;94.60;;;;;;5114717;28;20075;-65
2023/03/18 11:34:24;;;;;;;13.27;7.78;;;22.90;93.00;;;;;;5114995;28;20044;-65
2023/03/18 11:36:54;;;;;;;11.00;8.23;;;22.50;93.70;;;;;;5115605;28;20048;-65
2023/03/18 11:39:25;;;;;;;10.02;8.60;;;23.00;94.00;;;;;;5113168;28;20556;-64
2023/03/18 11:41:52;;;;;;;10.27;8.30;;;22.60;94.20;;;;;;5115488;28;20051;-65
2023/03/18 11:44:27;;;;;;;10.38;8.27;;;22.10;94.10;;;;;;5116116;28;20450;-64
2023/03/18 11:47:00;;;;;;;10.32;7.82;;;21.20;95.80;;;;;;5115708;28;20051;-64
2023/03/18 11:49:28;;;;;;;10.10;8.20;;;20.80;95.80;;;;;;5115543;28;20047;-64
2023/03/18 11:52:06;;;;;;;10.15;8.82;;;20.20;97.10;;;;;;5106089;27;20067;-64
2023/03/18 11:54:54;;;;;;;12.38;9.57;;;19.90;97.20;;;;;;5108305;28;20083;-65
2023/03/18 11:57:31;;;;;;;11.18;8.40;;;19.50;98.10;;;;;;5112439;28;20547;-64
2023/03/18 12:00:16;;;;;;;11.30;8.48;;;19.30;98.80;;;;;;5113250;28;20056;-63
2023/03/18 12:03:08;;;;;;;10.57;7.88;;;19.00;99.50;;;;;;5110313;28;20055;-64
2023/03/18 12:05:45;;;;;;;8.18;5.63;;;19.30;99.50;;;;;;5112637;28;20495;-64
2023/03/18 12:08:17;;;;;;;32.08;6.72;;;20.70;97.50;;;;;;5113273;28;20127;-65
2023/03/18 12:10:49;;;;;;;8.73;5.38;;;22.30;95.60;;;;;;5142965;27;20109;-64
2023/03/18 12:13:33;;;;;;;17.50;8.15;;;23.50;93.10;;;;;;5111360;28;20495;-64
2023/03/18 12:16:11;;;;;;;16.95;10.85;;;23.30;92.90;;;;;;5107961;28;20047;-64
2023/03/18 12:18:56;;;;;;;15.93;10.23;;;22.60;94.40;;;;;;5113809;28;20116;-64
2023/03/18 12:22:00;;;;;;;14.20;9.73;;;21.70;95.50;;;;;;5107527;28;20039;-64
2023/03/18 12:24:50;;;;;;;12.13;9.02;;;21.30;96.00;;;;;;5108821;28;20055;-64
2023/03/18 12:27:30;;;;;;;13.80;9.05;;;20.70;96.40;;;;;;5112892;28;20043;-65
2023/03/18 12:30:17;;;;;;;12.88;10.10;;;20.20;97.30;;;;;;5110592;28;20051;-63
2023/03/18 12:32:55;;;;;;;14.70;10.07;;;19.90;98.10;;;;;;5113976;28;20039;-64
2023/03/18 12:35:42;;;;;;;14.05;10.10;;;20.50;98.70;;;;;;5111034;28;20050;-64
2023/03/18 12:38:32;;;;;;;12.70;8.75;;;22.20;96.90;;;;;;5111557;28;20071;-71
2023/03/18 12:41:06;;;;;;;12.20;9.60;;;22.60;95.30;;;;;;5109195;28;20051;-65
2023/03/18 12:44:00;;;;;;;21.98;9.27;;;23.00;94.20;;;;;;5111479;27;20484;-66
2023/03/18 12:46:31;;;;;;;13.48;8.05;;;23.10;93.30;;;;;;5109888;28;20078;-66